Time;durP1;ratioP1;P1;durP2;ratioP2;P2;SDS_P1;SDS_P2;PMS_P1;PMS_P2;Temp;Humidity;BMP_temperature;BMP_pressure;BME280_temperature;BME280_humidity;BME280_pressure;Samples;Min_cycle;Max_cycle;Signal;HPM_P1;HPM_P2
2022/04/23 00:00:25;;;;;;;469.40;449.90;;;6.70;99.90;;;;;;4976820;28;20483;-80
2022/04/23 00:02:51;;;;;;;566.17;540.87;;;6.80;99.90;;;;;;4979326;28;20838;-84
2022/04/23 00:05:18;;;;;;;554.37;529.00;;;6.60;99.90;;;;;;4981496;28;20454;-81
2022/04/23 00:07:45;;;;;;;535.60;511.77;;;6.60;99.90;;;;;;4979849;28;20458;-80
2022/04/23 00:10:12;;;;;;;547.03;522.27;;;6.60;99.90;;;;;;4979603;28;20968;-81
2022/04/23 00:12:39;;;;;;;516.50;492.63;;;6.50;99.90;;;;;;4981326;28;20496;-82
2022/04/23 00:15:08;;;;;;;482.23;461.10;;;6.40;99.90;;;;;;4980278;28;20451;-80
2022/04/23 00:17:36;;;;;;;619.67;589.10;;;6.20;99.90;;;;;;4980014;28;20455;-80
2022/04/23 00:20:07;;;;;;;700.47;662.07;;;6.20;99.90;;;;;;4978814;28;20455;-80
2022/04/23 00:22:36;;;;;;;689.73;652.27;;;6.30;99.90;;;;;;4980276;28;20976;-81
2022/04/23 00:25:03;;;;;;;740.80;697.90;;;6.20;99.90;;;;;;4979782;28;20451;-80
2022/04/23 00:27:30;;;;;;;725.83;684.43;;;6.30;99.90;;;;;;4980570;28;20459;-80
2022/04/23 00:29:57;;;;;;;743.80;701.33;;;6.20;99.90;;;;;;4979142;28;21038;-83
2022/04/23 00:32:25;;;;;;;739.63;698.07;;;6.00;99.90;;;;;;4980856;28;20451;-81
2022/04/23 00:34:55;;;;;;;737.53;695.93;;;6.10;99.90;;;;;;4981340;28;20486;-81
2022/04/23 00:37:24;;;;;;;735.57;692.13;;;6.20;99.90;;;;;;4962860;29;20466;-80
2022/04/23 00:39:51;;;;;;;736.67;693.87;;;6.20;99.90;;;;;;4967446;28;20470;-80
2022/04/23 00:42:20;;;;;;;770.37;724.00;;;5.90;99.90;;;;;;4980725;28;20565;-82
2022/04/23 00:44:51;;;;;;;793.17;744.40;;;6.00;99.90;;;;;;4980412;28;20459;-81
2022/04/23 00:47:22;;;;;;;767.60;720.53;;;5.90;99.90;;;;;;4980584;28;20530;-83
2022/04/23 00:49:50;;;;;;;786.67;738.07;;;5.80;99.90;;;;;;4979375;28;20537;-80
2022/04/23 00:52:17;;;;;;;794.37;745.50;;;5.90;99.90;;;;;;4979867;28;20455;-80
2022/04/23 00:54:45;;;;;;;782.70;734.83;;;5.80;99.90;;;;;;4981316;28;20458;-79
2022/04/23 00:57:11;;;;;;;800.13;748.77;;;5.80;99.90;;;;;;4981700;28;20465;-81
2022/04/23 00:59:38;;;;;;;772.20;725.57;;;5.90;99.90;;;;;;4980510;28;20486;-80
2022/04/23 01:02:05;;;;;;;793.67;746.57;;;5.70;99.90;;;;;;4981635;28;20490;-81
2022/04/23 01:04:33;;;;;;;799.63;751.57;;;5.60;99.90;;;;;;4981356;28;20462;-81
2022/04/23 01:07:03;;;;;;;812.57;761.10;;;5.70;99.90;;;;;;4981120;28;20457;-80
2022/04/23 01:09:30;;;;;;;819.40;767.07;;;5.70;99.90;;;;;;4980868;28;20557;-80
2022/04/23 01:11:59;;;;;;;833.37;779.53;;;5.70;99.90;;;;;;4981136;28;20466;-80
2022/04/23 01:14:27;;;;;;;804.07;753.27;;;5.70;99.90;;;;;;4979466;28;20837;-80
2022/04/23 01:16:53;;;;;;;831.50;778.77;;;5.80;99.90;;;;;;4981263;28;20546;-82
2022/04/23 01:19:22;;;;;;;814.33;761.70;;;5.70;99.90;;;;;;4980361;28;20857;-80
2022/04/23 01:21:50;;;;;;;791.83;742.53;;;5.80;99.90;;;;;;4981334;28;20489;-81
2022/04/23 01:24:18;;;;;;;798.03;746.03;;;5.80;99.90;;;;;;4981410;28;20457;-80
2022/04/23 01:26:45;;;;;;;838.17;782.97;;;5.70;99.90;;;;;;4981860;28;20818;-80
2022/04/23 01:29:11;;;;;;;790.27;732.83;;;6.00;99.90;;;;;;4980646;28;20494;-80
2022/04/23 01:31:38;;;;;;;797.97;744.00;;;6.00;99.90;;;;;;4982232;28;20457;-83
2022/04/23 01:34:05;;;;;;;710.73;667.40;;;6.80;99.90;;;;;;4980720;28;20546;-80
2022/04/23 01:36:32;;;;;;;630.97;596.37;;;6.80;99.90;;;;;;4980971;28;20455;-80
2022/04/23 01:39:00;;;;;;;648.37;614.03;;;6.70;99.90;;;;;;4979913;28;20486;-81
2022/04/23 01:41:27;;;;;;;728.10;687.30;;;6.70;99.90;;;;;;4981113;28;20482;-81
2022/04/23 01:43:53;;;;;;;625.20;592.87;;;6.80;99.90;;;;;;4980645;28;20527;-81
2022/04/23 01:46:20;;;;;;;720.93;680.17;;;6.60;99.90;;;;;;4980509;28;20463;-80
2022/04/23 01:48:49;;;;;;;732.40;691.30;;;6.50;99.90;;;;;;4979169;28;20517;-80
2022/04/23 01:51:15;;;;;;;718.50;679.73;;;6.50;99.90;;;;;;4979540;28;20482;-82
2022/04/23 01:53:42;;;;;;;737.93;697.20;;;6.40;99.90;;;;;;4980738;28;20538;-80
2022/04/23 01:56:11;;;;;;;735.50;696.00;;;6.30;99.90;;;;;;4980048;28;20466;-80
2022/04/23 01:58:38;;;;;;;744.40;703.73;;;6.20;99.90;;;;;;4979309;28;20485;-80
2022/04/23 02:01:05;;;;;;;794.33;747.97;;;6.10;99.90;;;;;;4979353;28;20489;-80
2022/04/23 02:03:32;;;;;;;810.67;761.37;;;5.80;99.90;;;;;;4979311;28;20451;-80
2022/04/23 02:05:59;;;;;;;837.67;784.87;;;5.70;99.90;;;;;;4979689;28;20517;-80
2022/04/23 02:08:26;;;;;;;870.70;812.10;;;5.70;99.90;;;;;;4978555;28;20505;-83
2022/04/23 02:10:55;;;;;;;873.50;810.67;;;5.70;99.90;;;;;;4979955;28;20505;-80
2022/04/23 02:13:23;;;;;;;889.90;826.10;;;5.60;99.90;;;;;;4979387;28;20533;-80
2022/04/23 02:15:50;;;;;;;895.37;830.80;;;5.60;99.90;;;;;;4979466;28;20459;-80
2022/04/23 02:18:17;;;;;;;877.03;815.30;;;5.50;99.90;;;;;;4978613;28;20470;-81
2022/04/23 02:20:44;;;;;;;897.27;834.10;;;5.50;99.90;;;;;;4979752;28;20482;-80
2022/04/23 02:23:11;;;;;;;880.17;817.97;;;5.40;99.90;;;;;;4979932;28;20827;-83
2022/04/23 02:25:38;;;;;;;884.27;820.17;;;5.30;99.90;;;;;;4979687;28;20514;-80
2022/04/23 02:28:05;;;;;;;889.27;823.87;;;5.30;99.90;;;;;;4978423;28;20501;-85
2022/04/23 02:30:34;;;;;;;889.53;822.17;;;5.30;99.90;;;;;;4979135;28;20892;-81
2022/04/23 02:33:01;;;;;;;833.27;767.70;;;5.10;99.90;;;;;;4978488;28;20459;-83
2022/04/23 02:35:28;;;;;;;838.70;770.70;;;5.00;99.90;;;;;;4980239;28;20470;-80
2022/04/23 02:37:57;;;;;;;835.93;767.90;;;5.20;99.90;;;;;;4978399;28;20554;-80
2022/04/23 02:40:25;;;;;;;829.13;764.83;;;5.10;99.90;;;;;;4977650;28;20487;-82
2022/04/23 02:42:53;;;;;;;855.23;786.83;;;5.00;99.90;;;;;;4978252;28;20502;-82
2022/04/23 02:45:20;;;;;;;860.33;790.73;;;4.90;99.90;;;;;;4978419;28;20459;-80
2022/04/23 02:47:50;;;;;;;872.30;800.03;;;4.90;99.90;;;;;;4978306;28;20952;-82
2022/04/23 02:50:25;;;;;;;867.23;795.27;;;5.00;99.90;;;;;;4998268;23;20483;-80
2022/04/23 02:52:52;;;;;;;868.70;797.73;;;4.90;99.90;;;;;;4976489;28;21242;-80
2022/04/23 02:55:19;;;;;;;851.17;781.67;;;4.90;99.90;;;;;;4977886;28;20461;-81
2022/04/23 02:57:46;;;;;;;846.70;777.70;;;4.80;99.90;;;;;;4977466;28;20458;-81
2022/04/23 03:00:13;;;;;;;853.80;786.30;;;4.90;99.90;;;;;;4979078;28;20474;-80
2022/04/23 03:02:40;;;;;;;872.47;801.40;;;4.70;99.90;;;;;;4987996;28;20559;-80
2022/04/23 03:05:11;;;;;;;879.30;805.83;;;4.70;99.90;;;;;;4974320;28;20466;-81
2022/04/23 03:07:38;;;;;;;865.87;794.00;;;4.70;99.90;;;;;;4975819;28;20455;-81
2022/04/23 03:10:05;;;;;;;865.53;793.67;;;4.60;99.90;;;;;;4977405;28;20474;-81
2022/04/23 03:12:32;;;;;;;867.17;796.37;;;4.70;99.90;;;;;;4978004;28;20447;-82
2022/04/23 03:14:59;;;;;;;864.57;795.37;;;4.60;99.90;;;;;;4976577;28;20974;-81
2022/04/23 03:17:26;;;;;;;864.57;795.23;;;4.50;99.90;;;;;;4990310;28;20451;-81
2022/04/23 03:19:54;;;;;;;872.13;798.27;;;4.40;99.90;;;;;;4976027;28;20877;-81
2022/04/23 03:22:23;;;;;;;897.30;822.07;;;4.50;99.90;;;;;;4976793;28;20478;-81
2022/04/23 03:24:49;;;;;;;894.40;818.33;;;4.50;99.90;;;;;;4978524;28;20971;-81
2022/04/23 03:27:16;;;;;;;888.37;814.03;;;4.50;99.90;;;;;;4976745;28;20489;-81
2022/04/23 03:29:44;;;;;;;892.30;817.97;;;4.50;99.90;;;;;;4976018;28;20482;-81
2022/04/23 03:32:11;;;;;;;889.47;815.97;;;4.40;99.90;;;;;;4977385;28;20458;-81
2022/04/23 03:34:38;;;;;;;874.57;802.47;;;4.40;99.90;;;;;;4976338;28;20454;-81
2022/04/23 03:37:05;;;;;;;883.53;813.67;;;4.40;99.90;;;;;;4977647;28;20451;-81
2022/04/23 03:39:34;;;;;;;878.50;808.63;;;4.20;99.90;;;;;;4980764;28;21064;-81
2022/04/23 03:42:02;;;;;;;878.77;808.13;;;4.20;99.90;;;;;;4980286;28;20542;-81
2022/04/23 03:44:29;;;;;;;859.70;787.10;;;4.30;99.90;;;;;;4981044;28;20466;-80
2022/04/23 03:46:56;;;;;;;841.20;770.63;;;4.30;99.90;;;;;;4981141;28;21034;-82
2022/04/23 03:49:24;;;;;;;837.43;768.27;;;4.20;99.90;;;;;;4978931;28;20490;-81
2022/04/23 03:51:50;;;;;;;843.47;775.37;;;4.20;99.90;;;;;;4980405;28;20465;-81
2022/04/23 03:54:17;;;;;;;842.23;774.33;;;4.20;99.90;;;;;;4981249;28;20549;-81
2022/04/23 03:56:45;;;;;;;843.73;775.73;;;4.10;99.90;;;;;;4979369;28;20459;-81
2022/04/23 03:59:13;;;;;;;856.93;786.83;;;4.20;99.90;;;;;;4980838;28;20470;-81
2022/04/23 04:01:39;;;;;;;845.70;776.50;;;4.20;99.90;;;;;;4981370;28;20475;-82
2022/04/23 04:04:06;;;;;;;835.93;766.60;;;4.20;99.90;;;;;;4979012;28;20945;-81
2022/04/23 04:06:34;;;;;;;852.80;783.60;;;4.20;99.90;;;;;;4980639;28;20458;-81
2022/04/23 04:09:00;;;;;;;865.07;792.93;;;4.10;99.90;;;;;;4980188;28;20525;-81
2022/04/23 04:12:00;;;;;;;874.13;799.17;;;4.20;99.90;;;;;;4978781;28;20462;-80
2022/04/23 04:14:15;;;;;;;868.93;793.27;;;4.30;99.90;;;;;;4967725;28;20451;-81
2022/04/23 04:16:42;;;;;;;878.57;800.03;;;4.40;99.90;;;;;;4980942;28;20444;-81
2022/04/23 04:19:09;;;;;;;883.00;803.80;;;4.40;99.90;;;;;;4977696;28;20474;-81
2022/04/23 04:21:36;;;;;;;884.03;805.37;;;4.40;99.90;;;;;;4980642;28;20526;-81
2022/04/23 04:24:02;;;;;;;897.13;817.03;;;4.50;99.90;;;;;;4980531;28;20470;-81
2022/04/23 04:26:29;;;;;;;903.37;821.67;;;4.60;99.90;;;;;;4978583;28;20455;-81
2022/04/23 04:28:56;;;;;;;902.20;820.60;;;4.50;99.90;;;;;;4979366;28;20467;-81
2022/04/23 04:34:09;;;;;;;886.70;806.13;;;4.70;99.90;;;;;;4979231;28;20450;-81
2022/04/23 04:36:36;;;;;;;905.13;822.70;;;5.10;99.90;;;;;;4980453;28;20470;-81
2022/04/23 04:39:02;;;;;;;881.50;800.43;;;5.20;99.90;;;;;;4977999;28;20474;-81
2022/04/23 04:41:31;;;;;;;872.43;794.57;;;5.30;99.90;;;;;;4979298;28;20470;-81
2022/04/23 04:43:58;;;;;;;863.83;787.87;;;5.20;99.90;;;;;;4979753;28;20459;-82
2022/04/23 04:46:26;;;;;;;878.23;797.17;;;5.10;99.90;;;;;;4978577;28;20466;-81
2022/04/23 04:48:52;;;;;;;872.27;793.40;;;5.30;99.90;;;;;;4976642;28;20851;-81
2022/04/23 04:51:19;;;;;;;879.23;798.03;;;5.40;99.90;;;;;;4980772;28;20463;-80
2022/04/23 04:53:46;;;;;;;853.60;775.13;;;5.50;99.90;;;;;;4973128;28;21175;-79
2022/04/23 04:56:13;;;;;;;848.83;773.83;;;5.80;99.90;;;;;;4978231;28;20466;-82
2022/04/23 04:58:43;;;;;;;849.67;777.13;;;6.00;99.90;;;;;;4978051;28;20486;-81
2022/04/23 05:01:10;;;;;;;867.07;797.63;;;6.30;99.90;;;;;;4978591;28;20451;-81
2022/04/23 05:03:40;;;;;;;855.90;792.30;;;6.30;99.90;;;;;;4979057;28;20481;-82
2022/04/23 05:06:06;;;;;;;853.27;794.13;;;6.50;99.90;;;;;;4980039;28;20894;-81
2022/04/23 05:08:34;;;;;;;845.73;789.50;;;6.70;99.90;;;;;;4978085;28;20457;-80
2022/04/23 05:11:00;;;;;;;837.30;783.50;;;6.70;99.90;;;;;;4978602;28;20490;-80
2022/04/23 05:13:27;;;;;;;820.17;768.67;;;6.80;99.90;;;;;;4979187;28;20451;-81
2022/04/23 05:15:54;;;;;;;788.20;739.13;;;6.90;99.90;;;;;;4979190;28;20459;-81
2022/04/23 05:18:20;;;;;;;770.10;723.70;;;7.00;99.90;;;;;;4977882;28;20455;-82
2022/04/23 05:20:49;;;;;;;751.93;707.27;;;7.20;99.90;;;;;;4978426;28;20999;-83
2022/04/23 05:23:16;;;;;;;754.53;708.13;;;7.20;99.90;;;;;;4979523;28;20482;-83
2022/04/23 05:25:42;;;;;;;490.07;466.10;;;7.30;99.90;;;;;;4979044;28;20463;-84
2022/04/23 05:28:17;;;;;;;320.30;305.00;;;7.60;99.90;;;;;;4980605;28;20873;-86
2022/04/23 05:30:44;;;;;;;191.87;182.67;;;8.00;99.90;;;;;;4978154;28;20553;-83
2022/04/23 05:33:11;;;;;;;90.43;84.53;;;8.10;99.90;;;;;;4975709;28;20474;-84
2022/04/23 05:35:38;;;;;;;59.03;54.33;;;8.40;99.90;;;;;;4975671;28;20466;-83
2022/04/23 05:38:12;;;;;;;41.33;37.40;;;8.50;99.90;;;;;;4978112;28;20459;-82
2022/04/23 05:40:38;;;;;;;37.20;33.57;;;8.80;99.90;;;;;;4979337;28;20475;-81
2022/04/23 05:43:16;;;;;;;34.77;29.93;;;9.00;99.90;;;;;;4978019;28;20481;-81
2022/04/23 05:45:43;;;;;;;32.10;28.80;;;9.30;99.90;;;;;;4980424;28;20489;-82
2022/04/23 05:48:10;;;;;;;30.70;26.53;;;9.40;99.90;;;;;;4979913;28;20502;-81
2022/04/23 05:50:39;;;;;;;33.60;28.63;;;9.60;99.90;;;;;;4978505;28;20478;-81
2022/04/23 05:53:07;;;;;;;31.03;25.73;;;9.90;99.90;;;;;;4980059;28;20451;-81
2022/04/23 05:55:34;;;;;;;31.43;26.27;;;10.00;98.90;;;;;;4979203;28;20478;-82
2022/04/23 05:58:01;;;;;;;30.63;27.03;;;10.20;96.40;;;;;;4977496;28;20513;-82
2022/04/23 06:00:28;;;;;;;29.13;25.23;;;10.40;95.10;;;;;;4978667;28;20477;-82
2022/04/23 06:02:55;;;;;;;30.53;27.10;;;10.50;93.30;;;;;;4978552;28;20487;-82
2022/04/23 06:05:22;;;;;;;32.00;27.20;;;10.50;92.80;;;;;;4977765;28;20451;-81
2022/04/23 06:08:05;;;;;;;33.13;26.93;;;10.50;91.60;;;;;;4978479;28;21025;-81
2022/04/23 06:10:33;;;;;;;37.10;27.57;;;10.50;91.20;;;;;;4972827;28;21276;-81
2022/04/23 06:13:00;;;;;;;29.23;26.13;;;10.50;90.70;;;;;;4977845;28;20453;-81
2022/04/23 06:15:32;;;;;;;31.00;27.17;;;10.50;90.20;;;;;;4979365;28;20462;-81
2022/04/23 06:18:07;;;;;;;30.30;26.37;;;10.50;91.10;;;;;;4977925;28;20459;-81
2022/04/23 06:21:01;;;;;;;29.37;26.00;;;10.60;90.50;;;;;;4979818;28;20478;-82
2022/04/23 06:23:35;;;;;;;32.47;26.87;;;10.70;90.60;;;;;;4974825;28;20878;-82
2022/04/23 06:26:04;;;;;;;30.30;27.10;;;10.70;90.20;;;;;;4979856;28;20463;-81
2022/04/23 06:28:31;;;;;;;32.27;28.73;;;10.90;90.00;;;;;;4978552;28;20455;-81
2022/04/23 06:30:58;;;;;;;31.17;26.60;;;11.00;89.80;;;;;;4978258;28;20450;-81
2022/04/23 06:33:24;;;;;;;34.60;26.93;;;11.00;88.50;;;;;;4977845;28;20451;-81
2022/04/23 06:35:51;;;;;;;31.07;27.70;;;11.00;87.50;;;;;;4977850;28;20458;-81
2022/04/23 06:38:18;;;;;;;31.37;28.07;;;11.10;86.50;;;;;;4976310;28;20451;-80
2022/04/23 06:40:44;;;;;;;30.20;25.30;;;11.20;85.90;;;;;;4976345;28;20455;-81
2022/04/23 06:43:12;;;;;;;29.50;26.03;;;11.40;81.60;;;;;;4976884;28;20482;-81
2022/04/23 06:45:39;;;;;;;31.60;25.23;;;11.70;80.90;;;;;;4977430;28;20455;-81
2022/04/23 06:48:06;;;;;;;30.77;24.67;;;11.70;78.50;;;;;;4975392;28;20451;-81
2022/04/23 06:50:34;;;;;;;26.27;23.20;;;11.80;78.00;;;;;;4977023;28;20482;-81
2022/04/23 06:53:02;;;;;;;33.03;26.77;;;11.90;74.80;;;;;;4977764;28;20882;-81
2022/04/23 06:55:29;;;;;;;28.83;25.73;;;12.00;75.30;;;;;;4976919;28;20463;-81
2022/04/23 06:57:56;;;;;;;29.20;21.63;;;12.10;71.60;;;;;;4977229;28;20462;-80
2022/04/23 07:00:26;;;;;;;32.00;25.07;;;12.30;69.10;;;;;;4976340;28;20475;-81
2022/04/23 07:02:53;;;;;;;27.50;23.07;;;12.50;68.50;;;;;;4976669;28;20510;-80
2022/04/23 07:05:20;;;;;;;25.90;22.73;;;12.50;66.80;;;;;;4973536;28;20459;-81
2022/04/23 07:07:57;;;;;;;26.50;23.13;;;12.60;66.70;;;;;;4977143;28;20455;-81
2022/04/23 07:10:25;;;;;;;28.43;23.13;;;12.70;64.90;;;;;;4975507;28;20475;-81
2022/04/23 07:12:52;;;;;;;27.00;23.00;;;12.70;63.40;;;;;;4980082;28;20454;-81
2022/04/23 07:15:19;;;;;;;25.50;21.87;;;12.80;63.50;;;;;;4979844;28;20465;-80
2022/04/23 07:17:47;;;;;;;25.53;21.20;;;12.90;63.60;;;;;;4981378;28;20486;-80
2022/04/23 07:20:14;;;;;;;30.20;23.70;;;13.00;63.70;;;;;;4978768;28;21003;-81
2022/04/23 07:24:02;;;;;;;22.90;19.93;;;13.10;61.40;;;;;;4980136;28;20470;-82
2022/04/23 07:25:28;;;;;;;23.27;20.23;;;13.20;61.40;;;;;;4976072;28;20447;-82
2022/04/23 07:27:55;;;;;;;25.63;22.10;;;13.20;59.20;;;;;;4979932;28;20451;-81
2022/04/23 07:30:22;;;;;;;25.30;22.07;;;13.30;58.60;;;;;;4978984;28;20499;-80
2022/04/23 07:32:53;;;;;;;22.47;20.07;;;13.40;58.20;;;;;;4980549;28;20462;-83
2022/04/23 07:38:11;;;;;;;23.23;18.83;;;13.70;55.20;;;;;;4980507;28;20478;-80
2022/04/23 07:40:40;;;;;;;22.37;19.97;;;13.80;55.60;;;;;;4979317;28;20473;-79
2022/04/23 07:43:09;;;;;;;22.37;18.73;;;13.80;51.20;;;;;;4979558;28;20533;-82
2022/04/23 07:45:36;;;;;;;23.73;18.60;;;13.90;52.70;;;;;;4978839;28;20824;-80
2022/04/23 07:48:04;;;;;;;22.33;17.37;;;14.10;53.10;;;;;;4978779;28;20451;-79
2022/04/23 07:50:31;;;;;;;27.63;18.60;;;14.20;55.20;;;;;;4978499;28;20491;-80
2022/04/23 07:52:58;;;;;;;21.03;16.93;;;14.40;51.70;;;;;;4978221;28;20458;-80
2022/04/23 07:55:25;;;;;;;23.60;16.87;;;14.60;48.20;;;;;;4979678;28;20478;-80
2022/04/23 07:57:52;;;;;;;20.90;18.47;;;14.90;48.50;;;;;;4977793;28;20463;-80
2022/04/23 08:00:19;;;;;;;20.13;16.70;;;15.20;43.20;;;;;;4976775;28;20479;-80
2022/04/23 08:02:45;;;;;;;19.17;17.07;;;15.50;42.70;;;;;;4976832;28;20477;-80
2022/04/23 08:05:13;;;;;;;19.73;16.67;;;15.70;40.30;;;;;;4977637;28;20956;-80
2022/04/23 08:07:42;;;;;;;18.80;15.80;;;16.00;40.00;;;;;;4977450;28;20454;-80
2022/04/23 08:10:10;;;;;;;18.27;14.87;;;16.00;37.30;;;;;;4976349;28;20874;-80
2022/04/23 08:12:37;;;;;;;18.43;15.30;;;16.10;37.20;;;;;;4977706;28;20494;-80
2022/04/23 08:15:05;;;;;;;17.20;15.20;;;16.10;35.10;;;;;;4977832;28;20462;-80
2022/04/23 08:17:32;;;;;;;16.70;14.87;;;16.30;32.20;;;;;;4977785;28;20451;-80
2022/04/23 08:19:59;;;;;;;19.20;16.63;;;16.40;33.20;;;;;;4976364;28;20882;-80
2022/04/23 08:22:27;;;;;;;18.80;14.30;;;16.50;33.40;;;;;;4966810;28;20460;-80
2022/04/23 08:24:53;;;;;;;18.40;16.50;;;16.80;32.90;;;;;;4977594;28;20460;-81
2022/04/23 08:27:20;;;;;;;18.63;15.60;;;17.20;31.30;;;;;;4976505;28;20480;-81
2022/04/23 08:32:31;;;;;;;18.00;15.33;;;17.60;28.70;;;;;;4978411;28;20531;-80
2022/04/23 08:34:58;;;;;;;19.97;13.60;;;17.70;26.80;;;;;;4977071;28;20859;-81
2022/04/23 08:37:25;;;;;;;20.43;16.10;;;17.80;26.70;;;;;;4976070;28;20878;-80
2022/04/23 08:39:53;;;;;;;18.73;14.53;;;17.90;24.90;;;;;;4976436;28;20481;-80
2022/04/23 08:42:20;;;;;;;17.70;14.30;;;18.00;24.10;;;;;;4977250;28;20459;-80
2022/04/23 08:44:47;;;;;;;16.60;13.83;;;18.00;24.90;;;;;;4975687;28;21037;-80
2022/04/23 08:47:16;;;;;;;16.57;14.77;;;18.40;24.20;;;;;;4976085;28;20461;-80
2022/04/23 08:49:46;;;;;;;19.97;16.07;;;18.60;22.80;;;;;;5022719;23;20540;-80
2022/04/23 08:52:29;;;;;;;19.27;15.13;;;18.70;23.00;;;;;;4988718;28;20455;-85
2022/04/23 08:55:08;;;;;;;15.63;12.93;;;18.70;21.30;;;;;;4987747;28;20463;-80
2022/04/23 08:57:36;;;;;;;15.57;13.97;;;19.10;22.20;;;;;;4997801;28;20541;-82
2022/04/23 09:00:08;;;;;;;18.40;14.63;;;19.00;20.20;;;;;;5002615;28;20475;-83
2022/04/23 09:02:36;;;;;;;16.53;14.17;;;19.00;18.80;;;;;;5003461;28;20464;-83
2022/04/23 09:05:05;;;;;;;15.53;13.93;;;18.70;18.80;;;;;;4985001;28;20504;-82
2022/04/23 09:07:34;;;;;;;16.23;14.30;;;19.20;19.10;;;;;;4995651;28;20455;-83
2022/04/23 09:10:04;;;;;;;19.00;13.73;;;19.00;16.40;;;;;;4990832;28;20556;-83
2022/04/23 09:12:31;;;;;;;16.20;14.10;;;18.40;17.30;;;;;;4984715;28;20462;-82
2022/04/23 09:23:38;;;;;;;15.87;13.17;;;19.20;18.30;;;;;;4998000;28;20455;-83
2022/04/23 09:24:32;;;;;;;15.23;13.03;;;20.40;13.20;;;;;;4913050;29;20454;-84
2022/04/23 09:27:06;;;;;;;16.67;12.30;;;20.70;11.70;;;;;;4962903;28;20444;-84
2022/04/23 09:29:33;;;;;;;16.00;13.50;;;21.00;11.00;;;;;;4978256;28;20463;-84
2022/04/23 09:32:10;;;;;;;14.40;12.53;;;21.30;12.20;;;;;;4968814;28;20988;-80
2022/04/23 09:34:38;;;;;;;16.40;12.40;;;20.80;8.00;;;;;;4964858;28;20487;-81
2022/04/23 09:37:08;;;;;;;16.23;13.10;;;20.00;8.30;;;;;;4973143;28;20463;-83
2022/04/23 09:39:38;;;;;;;14.03;12.63;;;19.30;9.80;;;;;;4965382;28;20503;-81
2022/04/23 09:42:28;;;;;;;14.30;12.57;;;19.80;12.00;;;;;;4963364;28;20896;-81
2022/04/23 09:45:29;;;;;;;16.50;13.53;;;20.10;9.40;;;;;;4962317;28;20458;-84
2022/04/23 09:47:57;;;;;;;14.57;12.57;;;20.40;11.40;;;;;;4948701;28;20796;-81
2022/04/23 09:50:24;;;;;;;13.10;11.70;;;21.00;9.70;;;;;;4964020;28;20472;-82
2022/04/23 09:52:51;;;;;;;16.97;13.43;;;21.40;9.00;;;;;;4974496;28;20449;-83
2022/04/23 09:55:22;;;;;;;13.30;11.90;;;21.00;6.00;;;;;;4975924;28;20497;-82
2022/04/23 09:57:51;;;;;;;19.07;13.70;;;20.80;5.10;;;;;;4981227;28;20462;-82
2022/04/23 10:00:19;;;;;;;15.93;12.37;;;20.90;6.60;;;;;;4976458;28;20530;-82
2022/04/23 10:02:49;;;;;;;14.47;12.73;;;21.10;5.30;;;;;;4978533;28;20535;-84
2022/04/23 10:05:19;;;;;;;17.43;12.27;;;21.40;5.50;;;;;;4961426;28;20459;-82
2022/04/23 10:07:50;;;;;;;13.70;11.87;;;22.00;6.00;;;;;;4967338;28;20486;-83
2022/04/23 10:10:18;;;;;;;14.07;11.67;;;22.30;4.20;;;;;;4972075;28;20474;-82
2022/04/23 10:12:46;;;;;;;13.27;10.50;;;21.80;1.60;;;;;;4983791;28;20464;-82
2022/04/23 10:15:17;;;;;;;14.47;12.67;;;21.70;1.00;;;;;;4976948;28;20480;-83
2022/04/23 10:17:44;;;;;;;14.13;12.40;;;21.10;2.40;;;;;;4972098;28;20518;-83
2022/04/23 10:20:13;;;;;;;14.23;12.83;;;21.10;2.10;;;;;;4967457;28;20486;-82
2022/04/23 10:22:54;;;;;;;15.43;12.10;;;21.90;4.40;;;;;;4969009;28;20450;-82
2022/04/23 10:25:31;;;;;;;14.03;11.60;;;21.70;1.00;;;;;;4959567;28;20458;-83
2022/04/23 10:27:59;;;;;;;12.67;11.30;;;21.10;1.00;;;;;;4977133;28;20452;-82
2022/04/23 10:30:32;;;;;;;15.43;10.93;;;21.90;2.30;;;;;;4971032;28;20538;-82
2022/04/23 10:33:19;;;;;;;12.63;11.33;;;21.00;1.00;;;;;;4970991;28;20945;-81
2022/04/23 10:36:03;;;;;;;16.73;10.10;;;21.50;1.00;;;;;;4973432;28;20454;-82
2022/04/23 10:38:30;;;;;;;12.70;10.70;;;22.10;5.10;;;;;;4962026;28;20478;-82
2022/04/23 10:41:02;;;;;;;15.80;11.90;;;22.60;1.00;;;;;;4976158;28;20482;-83
2022/04/23 10:43:30;;;;;;;24.67;12.00;;;23.00;1.00;;;;;;4963086;28;20450;-82
2022/04/23 10:46:01;;;;;;;14.30;12.17;;;23.10;1.00;;;;;;4976952;28;20462;-82
2022/04/23 10:48:32;;;;;;;13.60;10.77;;;23.40;1.00;;;;;;4966218;28;20460;-81
2022/04/23 10:51:16;;;;;;;14.87;10.00;;;22.60;1.00;;;;;;4962584;28;20906;-81
2022/04/23 10:53:58;;;;;;;12.00;10.67;;;22.50;1.00;;;;;;4965878;28;20554;-84
2022/04/23 10:56:55;;;;;;;14.80;10.83;;;22.50;1.00;;;;;;4971874;28;20538;-84
2022/04/23 10:59:53;;;;;;;12.90;11.43;;;23.00;1.00;;;;;;4968501;28;20514;-84
2022/04/23 11:02:56;;;;;;;13.50;11.77;;;22.10;1.00;;;;;;4969372;28;21005;-83
2022/04/23 11:12:25;;;;;;;13.63;11.10;;;22.90;1.00;;;;;;4900354;28;20459;-84
2022/04/23 11:14:55;;;;;;;14.70;12.43;;;22.60;1.00;;;;;;4973161;28;20554;-87
2022/04/23 11:17:23;;;;;;;15.20;12.48;;;23.40;1.00;;;;;;4971158;28;20473;-85
2022/04/23 11:19:53;;;;;;;16.10;12.27;;;23.40;1.00;;;;;;4964415;28;20228;-84
2022/04/23 11:22:20;;;;;;;17.80;12.40;;;23.70;1.00;;;;;;4977223;28;20466;-85
2022/04/23 11:24:49;;;;;;;13.90;11.60;;;22.70;1.00;;;;;;4971332;28;20475;-82
2022/04/23 11:27:25;;;;;;;12.43;11.13;;;22.10;1.00;;;;;;4967323;28;20459;-83
2022/04/23 11:29:58;;;;;;;14.20;11.10;;;22.40;1.00;;;;;;4949499;28;20510;-84
2022/04/23 11:32:26;;;;;;;15.83;11.60;;;23.00;1.00;;;;;;4966009;28;20827;-82
2022/04/23 11:34:58;;;;;;;13.97;12.20;;;23.50;1.00;;;;;;4963768;28;20483;-82
2022/04/23 11:37:31;;;;;;;15.10;11.17;;;22.90;1.00;;;;;;4960528;28;20459;-81
2022/04/23 11:40:05;;;;;;;12.90;9.77;;;22.50;1.00;;;;;;4963975;28;20479;-81
2022/04/23 11:42:39;;;;;;;12.63;10.80;;;23.30;1.00;;;;;;4976998;28;20462;-81
2022/04/23 11:45:07;;;;;;;13.70;10.60;;;22.80;1.00;;;;;;4973368;28;20485;-83
2022/04/23 11:47:34;;;;;;;12.13;10.53;;;21.80;1.00;;;;;;4974282;28;20465;-82
2022/04/23 11:50:13;;;;;;;13.80;10.90;;;21.80;1.00;;;;;;4963699;28;20534;-82
2022/04/23 11:52:40;;;;;;;13.03;11.03;;;22.20;1.00;;;;;;4960390;28;20451;-83
2022/04/23 11:55:09;;;;;;;26.47;13.57;;;21.90;1.00;;;;;;4977215;28;20455;-83
2022/04/23 11:57:36;;;;;;;16.13;11.43;;;21.90;1.00;;;;;;4976617;28;20519;-84
2022/04/23 12:00:04;;;;;;;13.63;11.40;;;21.70;1.00;;;;;;4964471;28;20526;-85
2022/04/23 12:02:32;;;;;;;12.40;10.27;;;22.10;1.00;;;;;;4970740;28;20451;-85
2022/04/23 12:05:00;;;;;;;12.90;11.53;;;22.10;1.00;;;;;;4975536;28;20501;-86
2022/04/23 12:07:31;;;;;;;12.60;9.60;;;21.50;1.00;;;;;;4981760;28;20450;-83
2022/04/23 12:10:00;;;;;;;14.53;10.70;;;21.90;1.00;;;;;;4976511;28;20860;-84
2022/04/23 12:12:29;;;;;;;12.23;10.67;;;22.50;1.00;;;;;;4980604;28;20480;-81
2022/04/23 12:14:57;;;;;;;13.17;10.23;;;23.90;1.00;;;;;;4974271;28;20453;-81
2022/04/23 12:17:26;;;;;;;12.27;10.60;;;24.70;1.00;;;;;;4965750;28;20458;-82
2022/04/23 12:19:53;;;;;;;16.07;10.27;;;25.20;1.00;;;;;;4963163;28;20498;-82
2022/04/23 12:22:27;;;;;;;10.77;9.53;;;24.90;1.00;;;;;;4979501;28;20457;-82
2022/04/23 12:25:09;;;;;;;11.50;10.03;;;24.90;1.00;;;;;;4960776;28;20708;-81
2022/04/23 12:27:55;;;;;;;12.03;10.60;;;25.70;1.00;;;;;;4958583;28;20462;-81
2022/04/23 12:41:37;;;;;;;13.20;10.23;;;26.50;1.00;;;;;;4972503;28;20447;-83
2022/04/23 12:44:17;;;;;;;12.33;11.00;;;25.40;1.00;;;;;;4974663;28;20476;-83
2022/04/23 12:46:55;;;;;;;14.03;9.70;;;26.70;1.00;;;;;;4972197;28;20466;-82
2022/04/23 12:49:22;;;;;;;11.60;10.40;;;27.60;1.00;;;;;;4960610;29;20996;-83
2022/04/23 12:51:56;;;;;;;10.67;9.10;;;27.60;1.00;;;;;;4962609;29;20907;-82
2022/04/23 12:54:23;;;;;;;13.93;11.20;;;27.90;1.00;;;;;;4975979;28;20875;-82
2022/04/23 12:56:51;;;;;;;11.13;9.93;;;27.50;1.00;;;;;;4961665;28;20546;-82
2022/04/23 12:59:18;;;;;;;13.00;9.53;;;26.80;1.00;;;;;;4971054;28;20831;-81
2022/04/23 13:01:45;;;;;;;13.70;11.00;;;26.90;1.00;;;;;;4976082;28;20466;-80
2022/04/23 13:04:14;;;;;;;12.50;10.50;;;26.80;1.00;;;;;;4969277;28;20484;-82
2022/04/23 13:09:28;;;;;;;11.37;10.03;;;27.30;1.00;;;;;;4965980;28;20527;-88
2022/04/23 13:11:56;;;;;;;13.60;10.33;;;27.30;1.00;;;;;;4956486;28;20463;-87